UPSVAC Airport Information Service

Fiumicino International Airport

ICAO: LIRF Country: Italy, EU
Latitude: 41.796 Longitude: 12.2587
Latest Arrival : UPS177198 (LEBL-LIRF) Latest Departure : UPS50306 (LIRF-ESSA)


WX CaptureLIVE
Data provided by noaa.gov | Fetched at 22:25:23

METAR : LIRF 272150Z 32002KT 5000 1000W BCFG NSC 06/06 Q1024 BCMG 2000 BCFG

TAF : LIRF 272111Z 2721/2824 VRB04KT CAVOK TEMPO 2721/2803 2000 BCFG BECMG 2802/2805 02010KT BECMG 2817/2819 VRB04KT


Runway Data for LIRF
Data provided by openaviationdata.com

Runway ID Mag Var Hdg Length Elevation Surface ILS Freq ILS Id ILS Slope
7 0 69° 10583 ft 14 ft Asphalt -- -- --
16L 0 162° 12823 ft 14 ft Asphalt 108.1 FLL 3
16R 0 162° 12813 ft 14 ft Bituminous 109.75 FRR 3
25 0 249° 10583 ft 14 ft Asphalt 110.15 FEE 3
34L 0 342° 12813 ft 14 ft Bituminous 108.9 ISW 3
34R 0 342° 12823 ft 14 ft Asphalt 111.55 FSS 3

Fiumicino International Airport, Italy, EU
Use only for reference purposes



Not for navigational purposes.